Time;durP1;ratioP1;P1;durP2;ratioP2;P2;SDS_P1;SDS_P2;PMS_P1;PMS_P2;Temp;Humidity;BMP_temperature;BMP_pressure;BME280_temperature;BME280_humidity;BME280_pressure;Samples;Min_cycle;Max_cycle;Signal;HPM_P1;HPM_P2
2022/07/27 00:00:18;;;;;;;2.10;0.82;;;;;;;15.68;58.91;100927.94;5077645;28;20032;-71
2022/07/27 00:02:43;;;;;;;3.83;1.00;;;;;;;15.63;59.12;100926.91;5077681;28;20032;-71
2022/07/27 00:05:09;;;;;;;2.10;1.00;;;;;;;15.61;59.27;100934.81;5075114;28;20550;-71
2022/07/27 00:07:34;;;;;;;2.75;0.85;;;;;;;15.57;59.35;100921.75;5076517;28;20033;-71
2022/07/27 00:10:00;;;;;;;2.85;1.20;;;;;;;15.56;59.45;100920.09;5059823;28;20036;-71
2022/07/27 00:12:25;;;;;;;2.95;1.25;;;;;;;15.52;59.68;100919.09;5042993;28;20021;-71
2022/07/27 00:14:51;;;;;;;5.22;1.15;;;;;;;15.46;60.04;100918.41;5059584;28;20151;-71
2022/07/27 00:17:22;;;;;;;1.77;0.80;;;;;;;15.44;59.90;100917.06;5076621;28;20028;-71
2022/07/27 00:19:47;;;;;;;1.73;1.02;;;;;;;15.39;60.34;100921.63;5076151;28;20103;-71
2022/07/27 00:22:13;;;;;;;2.30;0.85;;;;;;;15.34;59.84;100907.75;5076255;28;20366;-71
2022/07/27 00:24:39;;;;;;;3.40;1.10;;;;;;;15.30;59.79;100915.13;5077509;28;20516;-71
2022/07/27 00:27:04;;;;;;;2.72;0.90;;;;;;;15.26;60.55;100913.28;5057985;28;20029;-71
2022/07/27 00:29:29;;;;;;;2.90;0.80;;;;;;;15.27;60.27;100912.97;5075882;28;20036;-71
2022/07/27 00:31:55;;;;;;;2.80;0.90;;;;;;;15.22;60.21;100915.88;5076236;28;20031;-71
2022/07/27 00:34:20;;;;;;;3.00;1.10;;;;;;;15.16;60.42;100914.34;5056252;28;20029;-71
2022/07/27 00:36:46;;;;;;;3.08;0.90;;;;;;;15.12;60.56;100907.72;5059345;28;20025;-71
2022/07/27 00:39:11;;;;;;;1.73;0.98;;;;;;;15.07;60.66;100907.81;5059442;28;20021;-71
2022/07/27 00:41:37;;;;;;;3.97;1.13;;;;;;;15.05;60.82;100904.53;5076168;28;20477;-71
2022/07/27 00:44:05;;;;;;;3.67;1.15;;;;;;;15.04;60.58;100902.88;5076777;28;20032;-71
2022/07/27 00:46:31;;;;;;;2.35;0.90;;;;;;;14.96;60.85;100896.88;5043657;28;20056;-71
2022/07/27 00:48:57;;;;;;;2.83;0.90;;;;;;;14.94;61.15;100904.75;5059308;28;20028;-71
2022/07/27 00:51:23;;;;;;;3.28;1.02;;;;;;;14.92;61.10;100901.44;5059302;28;20082;-71
2022/07/27 00:53:48;;;;;;;3.60;1.05;;;;;;;14.88;60.84;100897.63;5058930;28;20086;-71
2022/07/27 00:56:14;;;;;;;2.75;0.93;;;;;;;14.84;61.11;100896.59;5058773;28;20036;-71
2022/07/27 00:58:39;;;;;;;3.20;1.00;;;;;;;14.84;61.09;100898.56;5054194;28;20041;-72
2022/07/27 01:01:05;;;;;;;2.30;1.00;;;;;;;14.78;60.95;100892.25;5075248;28;20025;-71
2022/07/27 01:03:31;;;;;;;2.03;0.90;;;;;;;14.77;61.41;100893.41;5058697;28;20055;-71
2022/07/27 01:05:57;;;;;;;2.45;0.98;;;;;;;14.74;61.37;100894.84;5058787;28;20519;-71
2022/07/27 01:08:23;;;;;;;2.35;1.10;;;;;;;14.69;61.23;100891.34;5058602;28;20036;-71
2022/07/27 01:10:48;;;;;;;2.88;1.10;;;;;;;14.67;61.29;100888.84;5058825;28;20086;-71
2022/07/27 01:13:14;;;;;;;3.22;1.23;;;;;;;14.65;61.59;100885.53;5075123;28;20040;-71
2022/07/27 01:15:41;;;;;;;2.17;1.10;;;;;;;14.61;61.72;100884.50;5071350;28;20108;-71
2022/07/27 01:18:25;;;;;;;4.88;1.65;;;;;;;14.61;61.80;100880.91;5041997;28;20036;-71
2022/07/27 01:20:51;;;;;;;3.05;1.00;;;;;;;14.53;61.90;100883.28;5074793;28;20036;-71
2022/07/27 01:23:16;;;;;;;3.53;1.10;;;;;;;14.48;62.25;100872.16;5058419;28;20110;-71
2022/07/27 01:25:42;;;;;;;5.65;1.02;;;;;;;14.49;61.77;100871.03;5074952;28;20036;-71
2022/07/27 01:28:07;;;;;;;2.72;1.05;;;;;;;14.46;62.10;100870.84;5075503;28;20477;-71
2022/07/27 01:30:34;;;;;;;4.43;1.23;;;;;;;14.44;62.23;100867.53;5075987;28;20085;-71
2022/07/27 01:33:04;;;;;;;2.85;1.10;;;;;;;14.42;62.22;100867.00;5062198;28;20469;-71
2022/07/27 01:35:30;;;;;;;2.40;1.17;;;;;;;14.38;62.78;100868.78;5075008;28;20029;-71
2022/07/27 01:37:55;;;;;;;3.78;1.35;;;;;;;14.38;62.46;100877.97;5041700;28;20024;-71
2022/07/27 01:40:22;;;;;;;3.40;1.17;;;;;;;14.33;62.55;100872.50;5058220;28;20031;-71
2022/07/27 01:42:47;;;;;;;2.75;1.10;;;;;;;14.29;62.73;100868.66;5075921;28;20476;-71
2022/07/27 01:45:13;;;;;;;7.22;1.52;;;;;;;14.26;62.96;100866.47;5075094;28;20029;-71
2022/07/27 01:47:38;;;;;;;2.65;1.13;;;;;;;14.26;62.67;100866.47;5058171;28;20025;-71
2022/07/27 01:50:04;;;;;;;4.18;1.50;;;;;;;14.22;63.00;100862.66;5074674;28;20041;-71
2022/07/27 01:52:30;;;;;;;3.28;1.30;;;;;;;14.19;62.64;100871.66;5058197;28;20700;-71
2022/07/27 01:54:55;;;;;;;2.15;1.20;;;;;;;14.13;62.84;100862.56;5079784;28;20036;-71
2022/07/27 01:57:21;;;;;;;3.25;1.08;;;;;;;14.12;63.12;100868.44;5076037;28;20032;-71
2022/07/27 01:59:46;;;;;;;2.45;1.00;;;;;;;14.09;62.94;100867.91;5075384;28;20485;-71
2022/07/27 02:02:14;;;;;;;5.55;1.40;;;;;;;14.07;63.44;100870.22;5075790;28;20029;-71
2022/07/27 02:04:41;;;;;;;2.92;1.42;;;;;;;14.03;63.49;100866.38;5075685;28;20500;-71
2022/07/27 02:07:07;;;;;;;2.42;1.40;;;;;;;14.01;63.60;100863.06;5074799;28;20044;-71
2022/07/27 02:09:33;;;;;;;3.08;1.13;;;;;;;13.98;63.77;100868.44;5074534;28;20412;-71
2022/07/27 02:14:42;;;;;;;3.28;1.20;;;;;;;13.91;63.65;100860.47;5075376;28;20063;-71
2022/07/27 02:17:08;;;;;;;3.58;1.50;;;;;;;13.89;63.91;100854.34;5074668;28;20036;-71
2022/07/27 02:19:33;;;;;;;4.28;1.40;;;;;;;13.87;63.98;100853.81;5059273;28;20032;-71
2022/07/27 02:21:59;;;;;;;3.33;1.00;;;;;;;13.84;63.83;100854.44;5079722;28;20041;-71
2022/07/27 02:24:24;;;;;;;4.13;1.50;;;;;;;13.85;63.85;100850.53;5079841;28;20035;-71
2022/07/27 02:26:50;;;;;;;3.08;1.10;;;;;;;13.80;63.83;100854.25;5078961;28;20032;-71
2022/07/27 02:29:15;;;;;;;5.28;1.38;;;;;;;13.78;64.35;100866.84;5078411;28;20040;-71
2022/07/27 02:31:41;;;;;;;3.35;1.40;;;;;;;13.77;64.20;100862.41;5079503;28;20013;-71
2022/07/27 02:34:06;;;;;;;7.45;1.55;;;;;;;13.73;63.98;100856.59;5079520;28;20028;-71
2022/07/27 02:36:32;;;;;;;3.58;1.25;;;;;;;13.71;63.58;100852.47;5061921;28;20663;-71
2022/07/27 02:38:57;;;;;;;5.63;1.30;;;;;;;13.72;63.69;100857.75;5078377;28;20025;-71
2022/07/27 02:41:23;;;;;;;2.75;1.27;;;;;;;13.68;63.83;100856.72;5079259;28;20090;-71
2022/07/27 02:43:49;;;;;;;3.42;1.10;;;;;;;13.68;64.03;100853.06;5061238;28;20028;-71
2022/07/27 02:46:14;;;;;;;4.97;1.50;;;;;;;13.63;63.95;100843.66;5070526;28;20490;-71
2022/07/27 02:48:40;;;;;;;4.47;1.30;;;;;;;13.61;63.93;100851.50;5077955;28;20076;-71
2022/07/27 02:51:05;;;;;;;3.72;1.00;;;;;;;13.61;63.78;100850.69;5077763;28;20028;-71
2022/07/27 02:53:31;;;;;;;2.58;1.13;;;;;;;13.62;63.87;100852.31;5079216;28;20025;-71
2022/07/27 02:55:56;;;;;;;4.05;1.00;;;;;;;13.55;64.12;100852.72;5079080;28;20447;-71
2022/07/27 02:58:22;;;;;;;2.28;1.05;;;;;;;13.59;63.80;100850.97;5078646;28;20044;-71
2022/07/27 03:00:48;;;;;;;2.72;1.10;;;;;;;13.53;64.09;100846.63;5077570;28;20033;-71
2022/07/27 03:03:13;;;;;;;3.88;1.30;;;;;;;13.52;64.17;100847.78;5077764;28;20037;-71
2022/07/27 03:05:39;;;;;;;3.08;1.25;;;;;;;13.49;63.99;100841.97;5079082;28;20024;-71
2022/07/27 03:08:04;;;;;;;4.05;1.27;;;;;;;13.47;64.49;100835.88;5060757;28;20086;-71
2022/07/27 03:10:30;;;;;;;2.67;1.15;;;;;;;13.45;64.43;100838.94;5077779;28;20046;-71
2022/07/27 03:12:56;;;;;;;5.75;1.52;;;;;;;13.40;64.52;100839.06;5078777;28;20031;-71
2022/07/27 03:15:21;;;;;;;2.90;1.02;;;;;;;13.38;64.84;100833.78;5078404;28;20443;-71
2022/07/27 03:17:47;;;;;;;3.78;1.50;;;;;;;13.36;65.04;100832.41;5077267;28;20064;-71
2022/07/27 03:20:12;;;;;;;3.45;1.40;;;;;;;13.34;64.98;100835.50;5076411;28;20024;-71
2022/07/27 03:22:38;;;;;;;2.85;1.10;;;;;;;13.32;64.84;100825.81;5078498;28;20029;-71
2022/07/27 03:25:04;;;;;;;2.65;1.13;;;;;;;13.27;65.27;100828.69;5078454;28;20489;-71
2022/07/27 03:27:29;;;;;;;2.60;1.45;;;;;;;13.26;65.09;100830.66;5077203;28;20033;-71
2022/07/27 03:29:55;;;;;;;3.97;1.20;;;;;;;13.23;65.45;100822.81;5078111;28;20389;-71
2022/07/27 03:32:21;;;;;;;3.97;1.20;;;;;;;13.18;65.19;100823.75;5076364;28;20385;-71
2022/07/27 03:34:46;;;;;;;1.85;1.02;;;;;;;13.18;64.93;100820.16;5027467;28;20025;-71
2022/07/27 03:37:12;;;;;;;2.03;1.30;;;;;;;13.17;64.79;100816.50;5078542;28;20028;-71
2022/07/27 03:39:37;;;;;;;2.88;1.15;;;;;;;13.17;65.30;100816.50;5060285;28;20028;-71
2022/07/27 03:42:03;;;;;;;4.68;1.42;;;;;;;13.11;65.20;100817.72;5078334;28;20435;-71
2022/07/27 03:44:28;;;;;;;4.32;1.20;;;;;;;13.08;65.29;100815.56;5060320;28;20058;-71
2022/07/27 03:46:54;;;;;;;2.60;1.02;;;;;;;13.09;65.38;100813.59;5077023;28;20102;-71
2022/07/27 03:49:19;;;;;;;3.40;1.10;;;;;;;13.06;65.86;100811.41;5060262;28;20028;-71
2022/07/27 03:51:45;;;;;;;2.70;1.20;;;;;;;13.04;65.62;100819.25;5077867;28;20033;-71
2022/07/27 03:54:10;;;;;;;1.70;1.17;;;;;;;13.00;66.00;100819.03;5043660;28;20358;-71
2022/07/27 03:56:36;;;;;;;2.42;1.10;;;;;;;12.98;65.71;100815.69;5040682;28;20060;-71
2022/07/27 03:59:01;;;;;;;3.40;1.25;;;;;;;12.96;66.05;100812.41;5045038;28;20056;-70
2022/07/27 04:01:27;;;;;;;1.90;1.05;;;;;;;12.97;65.94;100814.06;5078100;28;20036;-71
2022/07/27 04:03:52;;;;;;;1.58;0.88;;;;;;;12.90;65.59;100805.25;5076776;28;20036;-71
2022/07/27 04:06:18;;;;;;;2.75;1.20;;;;;;;12.90;65.84;100805.25;5076572;28;20247;-71
2022/07/27 04:08:43;;;;;;;3.40;1.30;;;;;;;12.92;65.43;100805.78;5058000;28;20036;-71
2022/07/27 04:11:09;;;;;;;3.55;1.13;;;;;;;12.88;65.83;100811.13;5040150;28;20087;-70
2022/07/27 04:13:34;;;;;;;3.67;1.00;;;;;;;12.88;65.75;100813.09;5090658;28;20032;-71
2022/07/27 04:16:00;;;;;;;3.05;1.10;;;;;;;12.86;65.58;100807.00;5073896;28;20451;-71
2022/07/27 04:18:25;;;;;;;4.32;1.20;;;;;;;12.83;65.88;100802.84;5077670;28;20044;-70
2022/07/27 04:20:51;;;;;;;2.88;1.25;;;;;;;12.83;66.05;100804.81;5077207;28;20043;-71
2022/07/27 04:23:16;;;;;;;2.97;1.23;;;;;;;12.80;66.04;100805.41;5077568;28;20039;-71
2022/07/27 04:25:42;;;;;;;2.95;1.20;;;;;;;12.84;65.64;100806.44;5077510;28;20032;-71
2022/07/27 04:28:07;;;;;;;1.65;1.00;;;;;;;12.78;65.71;100799.31;5058082;28;20469;-71
2022/07/27 04:30:33;;;;;;;4.55;1.20;;;;;;;12.76;65.69;100796.84;5076381;28;20039;-71
2022/07/27 04:32:58;;;;;;;2.00;1.15;;;;;;;12.73;65.99;100798.25;5077383;28;20031;-70
2022/07/27 04:35:24;;;;;;;3.67;1.13;;;;;;;12.72;65.78;100799.38;5077775;28;20040;-71
2022/07/27 04:37:49;;;;;;;3.17;1.20;;;;;;;12.71;65.91;100802.47;5077165;28;20036;-71
2022/07/27 04:40:15;;;;;;;2.22;1.10;;;;;;;12.70;65.71;100800.81;5076070;28;20032;-71
2022/07/27 04:42:40;;;;;;;2.45;1.02;;;;;;;12.72;65.79;100804.94;5076749;28;20551;-71
2022/07/27 04:45:06;;;;;;;1.60;0.90;;;;;;;12.72;65.83;100802.16;5059135;28;20032;-71
2022/07/27 04:47:32;;;;;;;1.98;1.27;;;;;;;12.69;66.10;100805.56;5059337;28;20107;-71
2022/07/27 04:49:57;;;;;;;2.47;1.05;;;;;;;12.69;66.34;100802.78;5058848;28;20024;-71
2022/07/27 04:52:23;;;;;;;3.28;1.17;;;;;;;12.73;66.48;100814.13;5075603;28;20024;-71
2022/07/27 04:54:52;;;;;;;3.00;1.20;;;;;;;12.73;66.74;100808.56;5076577;28;20648;-71
2022/07/27 04:57:18;;;;;;;4.50;1.30;;;;;;;12.73;67.55;100812.19;5088209;28;20466;-71
2022/07/27 04:59:43;;;;;;;2.80;1.23;;;;;;;12.76;67.79;100802.41;5075215;28;20049;-71
2022/07/27 05:02:09;;;;;;;2.72;1.15;;;;;;;12.81;68.42;100810.66;5058922;28;20036;-71
2022/07/27 05:04:34;;;;;;;1.92;1.00;;;;;;;12.88;68.55;100810.31;5075447;28;20035;-71
2022/07/27 05:07:00;;;;;;;3.45;1.30;;;;;;;12.94;69.48;100804.34;5058879;28;20037;-71
2022/07/27 05:09:25;;;;;;;2.40;1.20;;;;;;;13.00;70.35;100807.06;5058731;28;20473;-71
2022/07/27 05:11:51;;;;;;;2.13;1.00;;;;;;;13.08;70.84;100812.75;5075351;28;20024;-71
2022/07/27 05:14:16;;;;;;;1.67;1.10;;;;;;;13.18;69.72;100804.25;5074895;28;20036;-71
2022/07/27 05:16:42;;;;;;;3.78;1.50;;;;;;;13.29;70.87;100804.94;5075331;28;20057;-71
2022/07/27 05:19:07;;;;;;;4.80;1.27;;;;;;;13.42;70.61;100808.88;5076349;28;20082;-71
2022/07/27 05:21:33;;;;;;;2.47;1.20;;;;;;;13.52;71.83;100794.75;5091951;28;20118;-71
2022/07/27 05:23:58;;;;;;;4.60;1.20;;;;;;;13.67;72.39;100795.59;5075065;28;20037;-71
2022/07/27 05:26:24;;;;;;;4.32;1.45;;;;;;;13.80;72.47;100792.00;5075293;28;20032;-71
2022/07/27 05:28:49;;;;;;;3.83;1.40;;;;;;;13.94;71.94;100792.00;5057979;28;20111;-71
2022/07/27 05:31:15;;;;;;;5.43;1.10;;;;;;;14.08;70.53;100788.06;5075088;28;20017;-71
2022/07/27 05:33:40;;;;;;;2.15;1.15;;;;;;;14.26;71.52;100789.13;5058288;28;20032;-71
2022/07/27 05:36:06;;;;;;;2.55;1.15;;;;;;;14.44;71.43;100789.28;5054369;28;20047;-71
2022/07/27 05:38:37;;;;;;;4.38;1.10;;;;;;;14.62;69.96;100802.31;5076132;28;20029;-71
2022/07/27 05:41:06;;;;;;;3.78;1.25;;;;;;;14.77;69.47;100798.34;5074736;28;20032;-71
2022/07/27 05:43:32;;;;;;;2.50;1.10;;;;;;;14.96;67.42;100796.22;5058362;28;20043;-71
2022/07/27 05:45:57;;;;;;;4.30;1.35;;;;;;;15.14;66.39;100808.34;5074830;28;20028;-71
2022/07/27 05:48:23;;;;;;;3.53;1.40;;;;;;;15.33;68.55;100805.34;5074885;28;20032;-71
2022/07/27 05:50:48;;;;;;;1.98;1.20;;;;;;;15.53;66.08;100808.78;5075541;28;20036;-71
2022/07/27 05:53:14;;;;;;;2.58;1.15;;;;;;;15.71;65.98;100809.72;5074621;28;20036;-71
2022/07/27 05:55:39;;;;;;;2.30;1.15;;;;;;;15.90;65.51;100809.50;5057491;28;20035;-71
2022/07/27 05:58:05;;;;;;;2.08;1.25;;;;;;;16.11;63.29;100809.75;5073558;28;20067;-71
2022/07/27 06:00:30;;;;;;;3.58;1.20;;;;;;;16.29;62.91;100806.66;5076162;28;20033;-71
2022/07/27 06:02:56;;;;;;;3.30;1.20;;;;;;;16.48;61.61;100811.97;5075799;28;20043;-71
2022/07/27 06:05:21;;;;;;;5.57;1.85;;;;;;;16.70;62.50;100813.84;5074717;28;20057;-71
2022/07/27 06:08:02;;;;;;;4.25;1.60;;;;;;;16.83;62.83;100812.06;5075728;28;20079;-71
2022/07/27 06:10:31;;;;;;;3.65;1.50;;;;;;;17.03;62.59;100810.59;5058322;28;20036;-71
2022/07/27 06:12:57;;;;;;;6.18;1.30;;;;;;;17.22;60.57;100817.81;5074530;28;20366;-67
2022/07/27 06:15:22;;;;;;;2.05;1.30;;;;;;;17.40;61.13;100809.06;5075652;28;20115;-68
2022/07/27 06:17:51;;;;;;;4.70;1.38;;;;;;;17.62;60.66;100816.44;5057662;28;20496;-66
2022/07/27 06:20:17;;;;;;;2.80;1.25;;;;;;;17.82;59.84;100811.28;5058463;28;20024;-66
2022/07/27 06:22:53;;;;;;;6.13;1.38;;;;;;;17.98;59.62;100823.63;5074521;28;20117;-66
2022/07/27 06:25:19;;;;;;;4.57;1.30;;;;;;;18.14;59.49;100821.09;5048735;28;20078;-66
2022/07/27 06:27:44;;;;;;;4.47;1.30;;;;;;;18.33;59.59;100812.25;5039933;28;20040;-65
2022/07/27 06:30:11;;;;;;;5.40;1.38;;;;;;;18.56;60.52;100814.75;5057678;28;20024;-66
2022/07/27 06:32:36;;;;;;;3.80;1.63;;;;;;;18.69;59.42;100814.50;5054506;28;20100;-66
2022/07/27 06:35:02;;;;;;;5.13;1.50;;;;;;;18.86;58.76;100813.59;5074121;28;20036;-67
2022/07/27 06:37:29;;;;;;;2.65;1.15;;;;;;;19.04;58.00;100813.44;5054816;28;20451;-66
2022/07/27 06:39:59;;;;;;;6.25;1.52;;;;;;;19.21;57.23;100821.72;5057401;28;20041;-65
2022/07/27 06:42:25;;;;;;;6.22;1.73;;;;;;;19.42;56.88;100824.53;5056158;28;20029;-65
2022/07/27 06:44:50;;;;;;;6.38;1.73;;;;;;;19.57;57.16;100820.22;5056948;28;20508;-65
2022/07/27 06:47:16;;;;;;;4.03;1.45;;;;;;;19.77;56.66;100826.97;5054198;28;20033;-65
2022/07/27 06:49:41;;;;;;;4.65;1.25;;;;;;;19.94;56.56;100817.50;5074262;28;20063;-65
2022/07/27 06:52:07;;;;;;;8.90;1.60;;;;;;;20.02;55.61;100825.03;5057258;28;20025;-65
2022/07/27 06:54:33;;;;;;;7.40;1.50;;;;;;;20.18;54.61;100828.00;5057481;28;20024;-65
2022/07/27 06:56:59;;;;;;;3.72;1.30;;;;;;;20.34;54.58;100826.13;5057742;28;20374;-65
2022/07/27 06:59:24;;;;;;;4.60;1.30;;;;;;;20.51;53.72;100830.69;5056911;28;20504;-65
2022/07/27 07:01:50;;;;;;;3.38;1.63;;;;;;;20.60;54.39;100820.13;5056942;28;21307;-65
2022/07/27 07:04:15;;;;;;;6.38;1.60;;;;;;;20.74;53.88;100829.03;5037848;28;20493;-65
2022/07/27 07:06:41;;;;;;;3.75;1.30;;;;;;;20.83;53.84;100819.63;5057361;28;20029;-65
2022/07/27 07:09:06;;;;;;;6.30;1.33;;;;;;;20.99;53.59;100826.16;5060562;28;20067;-65
2022/07/27 07:11:32;;;;;;;2.08;0.80;;;;;;;21.14;52.61;100825.41;5061032;28;20386;-65
2022/07/27 07:13:57;;;;;;;3.90;1.20;;;;;;;21.28;52.04;100825.00;5056970;28;20478;-65
2022/07/27 07:16:23;;;;;;;3.83;1.25;;;;;;;21.38;53.34;100829.34;5055190;28;20072;-66
2022/07/27 07:18:48;;;;;;;4.40;1.25;;;;;;;21.55;51.70;100839.50;5057954;28;20485;-65
2022/07/27 07:21:17;;;;;;;2.95;1.20;;;;;;;21.66;52.62;100837.81;5060676;28;20094;-65
2022/07/27 07:23:42;;;;;;;2.80;0.90;;;;;;;21.82;51.24;100837.84;5094507;28;20024;-65
2022/07/27 07:26:08;;;;;;;3.03;1.10;;;;;;;21.90;51.17;100839.69;5059609;28;20549;-66
2022/07/27 07:28:35;;;;;;;2.75;0.90;;;;;;;22.05;51.50;100835.22;5077302;28;20040;-65
2022/07/27 07:31:00;;;;;;;5.95;1.02;;;;;;;22.18;50.91;100833.97;5041582;28;20036;-66
2022/07/27 07:33:26;;;;;;;5.78;1.42;;;;;;;22.23;50.47;100830.88;5077289;28;20484;-66
2022/07/27 07:35:52;;;;;;;7.22;1.40;;;;;;;22.29;50.46;100831.41;5044153;28;20040;-66
2022/07/27 07:38:18;;;;;;;2.97;1.17;;;;;;;22.36;50.42;100828.75;5077308;28;20040;-66
2022/07/27 07:40:43;;;;;;;4.05;1.40;;;;;;;22.49;50.11;100830.28;5076915;28;20410;-65
2022/07/27 07:43:09;;;;;;;5.85;1.60;;;;;;;22.63;50.08;100834.66;5059908;28;20063;-65
2022/07/27 07:45:36;;;;;;;6.82;1.52;;;;;;;22.70;49.38;100827.13;5041640;28;20029;-65
2022/07/27 07:48:03;;;;;;;7.10;1.52;;;;;;;22.74;49.13;100832.91;5060694;28;20039;-66
2022/07/27 07:50:28;;;;;;;3.67;1.20;;;;;;;22.85;48.82;100833.97;5060239;28;20063;-65
2022/07/27 07:52:54;;;;;;;4.75;1.33;;;;;;;23.01;48.77;100830.28;5093686;28;20052;-65
2022/07/27 07:55:27;;;;;;;4.10;1.35;;;;;;;23.20;48.68;100830.28;5060257;28;20025;-65
2022/07/27 07:57:52;;;;;;;;;;;;;;;23.22;48.55;100835.59;5059487;28;20064;-65
2022/07/27 08:00:18;;;;;;;5.68;1.13;;;;;;;23.42;48.29;100828.72;5076758;28;20288;-65
2022/07/27 08:02:48;;;;;;;4.97;1.05;;;;;;;23.58;47.91;100822.97;5042508;28;20037;-65
2022/07/27 08:05:14;;;;;;;5.28;1.50;;;;;;;23.70;47.81;100822.78;5073964;28;20045;-65
2022/07/27 08:07:40;;;;;;;5.65;1.13;;;;;;;23.91;47.70;100835.78;5059920;28;20036;-65
2022/07/27 08:10:06;;;;;;;3.83;1.30;;;;;;;24.09;46.82;100839.72;5076517;28;20039;-65
2022/07/27 08:12:33;;;;;;;4.10;0.93;;;;;;;24.20;45.79;100835.06;5059038;28;20028;-65
2022/07/27 08:14:58;;;;;;;2.72;1.33;;;;;;;24.39;45.28;100834.16;5059668;28;20040;-66
2022/07/27 08:17:24;;;;;;;3.95;0.95;;;;;;;24.48;44.90;100831.09;5059081;28;20043;-65
2022/07/27 08:19:50;;;;;;;3.35;0.93;;;;;;;24.57;43.62;100814.59;5028546;28;20366;-65
2022/07/27 08:22:15;;;;;;;4.28;0.77;;;;;;;24.78;42.88;100824.66;5076302;28;20051;-66
2022/07/27 08:24:41;;;;;;;2.53;0.88;;;;;;;24.84;42.10;100823.09;5057817;28;20512;-65
2022/07/27 08:27:06;;;;;;;3.22;0.80;;;;;;;24.86;41.90;100818.69;5075159;28;20043;-65
2022/07/27 08:29:32;;;;;;;3.15;0.77;;;;;;;24.96;41.49;100826.53;5057452;28;20033;-65
2022/07/27 08:31:57;;;;;;;1.42;0.55;;;;;;;25.03;41.44;100814.44;5077718;28;20020;-66
2022/07/27 08:34:23;;;;;;;3.60;0.60;;;;;;;25.14;41.86;100821.13;5076306;28;20028;-65
2022/07/27 08:36:48;;;;;;;4.03;0.70;;;;;;;25.27;41.34;100818.00;5075904;28;20029;-65
2022/07/27 08:39:13;;;;;;;2.30;0.82;;;;;;;25.35;40.55;100822.59;5075956;28;20516;-65
2022/07/27 08:41:41;;;;;;;3.15;0.68;;;;;;;25.53;40.73;100820.78;5077029;28;20024;-66
2022/07/27 08:44:07;;;;;;;4.15;0.80;;;;;;;25.60;40.62;100826.56;5043153;28;20397;-65
2022/07/27 08:46:32;;;;;;;2.28;0.75;;;;;;;25.61;39.15;100828.19;5075650;28;20029;-65
2022/07/27 08:49:01;;;;;;;2.65;1.10;;;;;;;25.80;38.47;100826.38;5059415;28;20041;-67
2022/07/27 08:51:27;;;;;;;4.97;1.00;;;;;;;26.01;38.51;100823.72;5059052;28;20052;-66
2022/07/27 08:53:52;;;;;;;3.60;1.25;;;;;;;26.17;38.30;100822.66;5075319;28;20032;-66
2022/07/27 08:56:18;;;;;;;2.15;0.80;;;;;;;26.29;38.31;100816.66;5059102;28;20032;-66
2022/07/27 08:58:44;;;;;;;4.72;0.70;;;;;;;26.46;38.52;100821.66;5058589;28;20052;-67
2022/07/27 09:01:10;;;;;;;3.47;0.80;;;;;;;26.60;37.88;100815.28;5075573;28;20033;-67
2022/07/27 09:03:35;;;;;;;3.38;0.90;;;;;;;26.63;37.00;100813.69;5057453;28;20029;-65
2022/07/27 09:06:01;;;;;;;2.88;0.63;;;;;;;26.84;36.88;100810.97;5063227;28;20024;-65
2022/07/27 09:08:27;;;;;;;3.28;0.73;;;;;;;26.94;37.70;100806.53;5072450;28;20043;-66
2022/07/27 09:10:55;;;;;;;2.85;0.80;;;;;;;26.96;36.92;100804.91;5058799;28;20029;-68
2022/07/27 09:13:27;;;;;;;2.75;0.73;;;;;;;27.02;36.66;100808.22;5075298;28;20028;-67
2022/07/27 09:15:56;;;;;;;;;;;;;;;26.99;37.58;100796.78;5077152;28;20075;-67
2022/07/27 09:18:24;;;;;;;1.65;0.68;;;;;;;26.98;37.19;100800.88;5075178;28;19920;-67
2022/07/27 09:21:12;;;;;;;3.72;0.70;;;;;;;26.94;37.15;100801.69;5075270;28;20028;-68
2022/07/27 09:23:38;;;;;;;4.05;0.90;;;;;;;26.91;37.14;100802.47;5058340;28;20040;-67
2022/07/27 09:26:11;;;;;;;2.70;0.90;;;;;;;26.87;37.02;100793.06;5040331;28;20514;-67
2022/07/27 09:28:36;;;;;;;;;;;;;;;26.76;37.02;100792.19;5073476;28;20039;-67
2022/07/27 09:31:13;;;;;;;1.80;0.60;;;;;;;26.72;36.95;100795.03;5075030;28;19908;-68
2022/07/27 09:33:49;;;;;;;3.28;0.70;;;;;;;26.76;36.91;100794.25;5025059;28;20598;-68
2022/07/27 09:36:16;;;;;;;2.22;0.65;;;;;;;26.85;37.82;100792.66;5057667;28;20032;-67
2022/07/27 09:39:06;;;;;;;4.50;0.80;;;;;;;26.98;36.54;100790.28;5058388;28;20127;-68
2022/07/27 09:42:00;;;;;;;3.00;0.70;;;;;;;27.03;36.14;100791.94;5055617;28;20024;-68
2022/07/27 09:44:32;;;;;;;3.60;0.90;;;;;;;27.12;34.93;100778.94;5070590;28;20028;-68
2022/07/27 09:46:58;;;;;;;2.03;0.70;;;;;;;27.19;35.28;100781.03;5091437;28;20032;-68
2022/07/27 09:49:28;;;;;;;2.90;0.88;;;;;;;27.29;35.37;100777.41;5055233;28;20032;-68
2022/07/27 09:51:55;;;;;;;2.65;0.65;;;;;;;27.29;34.46;100782.31;5058043;28;20044;-68
2022/07/27 09:54:20;;;;;;;2.30;0.60;;;;;;;27.27;34.54;100779.03;5058267;28;20036;-68
2022/07/27 09:56:46;;;;;;;3.83;0.80;;;;;;;27.24;34.75;100776.97;5069445;28;20037;-68
2022/07/27 09:59:17;;;;;;;4.25;1.00;;;;;;;27.24;34.80;100771.28;5057477;28;20048;-68
2022/07/27 10:01:42;;;;;;;4.32;0.60;;;;;;;27.28;34.21;100770.09;5073874;28;20090;-68
2022/07/27 10:04:08;;;;;;;2.70;0.85;;;;;;;27.40;35.04;100769.69;5054798;28;20037;-68
2022/07/27 10:06:33;;;;;;;3.97;0.70;;;;;;;27.56;34.25;100769.34;5057893;28;20043;-67
2022/07/27 10:08:59;;;;;;;2.83;0.80;;;;;;;27.73;34.53;100769.78;5057866;28;20044;-68
2022/07/27 10:11:25;;;;;;;2.85;0.90;;;;;;;27.85;33.26;100764.50;5055015;28;20060;-67
2022/07/27 10:13:51;;;;;;;1.70;0.80;;;;;;;27.95;32.94;100762.91;5074464;28;20085;-67
2022/07/27 10:16:18;;;;;;;2.80;0.70;;;;;;;28.19;33.03;100757.56;5074674;28;20060;-67
2022/07/27 10:19:12;;;;;;;1.85;0.63;;;;;;;28.43;33.20;100765.34;5050959;28;20087;-68
2022/07/27 10:21:38;;;;;;;1.63;0.50;;;;;;;28.59;33.88;100767.75;5069680;28;20041;-72
2022/07/27 10:24:08;;;;;;;4.57;0.75;;;;;;;28.76;33.48;100753.84;5058217;28;20109;-72
2022/07/27 10:26:35;;;;;;;2.40;0.80;;;;;;;28.70;32.31;100762.84;5066296;28;20097;-72
2022/07/27 10:29:13;;;;;;;2.67;0.65;;;;;;;28.91;31.49;100761.13;5070264;28;20048;-72
2022/07/27 10:31:40;;;;;;;3.38;0.80;;;;;;;29.16;31.75;100759.00;5075328;28;20099;-72
2022/07/27 10:34:07;;;;;;;1.80;0.63;;;;;;;29.35;31.14;100751.94;5055907;28;20789;-72
2022/07/27 10:36:32;;;;;;;2.75;0.50;;;;;;;29.51;30.46;100750.66;5074528;28;20032;-69
2022/07/27 10:38:59;;;;;;;3.72;0.80;;;;;;;29.69;30.55;100748.50;5075671;28;20385;-68
2022/07/27 10:41:31;;;;;;;3.47;0.50;;;;;;;29.79;30.23;100749.66;5077963;28;20032;-69
2022/07/27 10:44:16;;;;;;;1.98;0.70;;;;;;;30.01;29.62;100748.25;5093135;28;20028;-68
2022/07/27 10:46:53;;;;;;;3.05;0.60;;;;;;;30.12;29.83;100748.16;5077143;28;20045;-69
2022/07/27 10:49:20;;;;;;;2.20;0.50;;;;;;;30.28;29.50;100739.84;5043293;28;20032;-68
2022/07/27 10:51:46;;;;;;;1.90;0.68;;;;;;;30.43;29.71;100743.38;5061463;28;20027;-68
2022/07/27 10:54:21;;;;;;;2.65;0.70;;;;;;;30.62;29.45;100743.97;5077734;28;20028;-68
2022/07/27 10:56:48;;;;;;;1.77;0.57;;;;;;;30.70;29.65;100736.94;5072355;28;20028;-69
2022/07/27 10:59:13;;;;;;;1.67;0.45;;;;;;;30.69;29.33;100741.84;5057017;28;20045;-69
2022/07/27 11:01:57;;;;;;;1.98;0.52;;;;;;;30.58;29.08;100734.63;5060501;28;20086;-69
2022/07/27 11:04:23;;;;;;;2.53;0.70;;;;;;;30.44;29.35;100742.13;5057778;28;20040;-69
2022/07/27 11:06:54;;;;;;;1.63;0.68;;;;;;;30.17;30.02;100730.53;5042729;28;20037;-69
2022/07/27 11:09:19;;;;;;;1.48;0.55;;;;;;;29.94;29.82;100731.13;5061850;28;20039;-69
2022/07/27 11:11:44;;;;;;;3.60;0.63;;;;;;;29.78;29.99;100733.69;5061254;28;20033;-69
2022/07/27 11:14:10;;;;;;;1.73;0.60;;;;;;;29.51;30.48;100728.56;5075335;28;20082;-69
2022/07/27 11:16:36;;;;;;;3.13;0.73;;;;;;;29.28;30.64;100722.56;5042543;28;20040;-69
2022/07/27 11:19:04;;;;;;;2.17;0.55;;;;;;;29.27;30.80;100729.53;5039455;28;20086;-68
2022/07/27 11:21:34;;;;;;;2.47;0.70;;;;;;;29.21;30.74;100722.63;5047344;28;20028;-68
2022/07/27 11:24:10;;;;;;;4.95;0.70;;;;;;;29.26;31.41;100713.63;5095057;28;20040;-69
2022/07/27 11:26:47;;;;;;;4.65;0.57;;;;;;;29.34;31.05;100709.47;5057077;28;20040;-69